createdAt,value
2018-05-09T00:01:23.799Z,13.7
2018-05-09T00:04:21.791Z,13.7
2018-05-09T00:05:21.102Z,13.7
2018-05-09T00:10:17.355Z,13.6
2018-05-09T00:11:16.792Z,13.6
2018-05-09T00:13:14.999Z,13.6
2018-05-09T00:14:14.326Z,13.6
2018-05-09T00:15:13.547Z,13.6
2018-05-09T00:20:09.697Z,13.5
2018-05-09T00:21:09.306Z,13.5
2018-05-09T00:23:07.622Z,13.5
2018-05-09T00:27:04.606Z,13.4
2018-05-09T00:30:02.486Z,13.3
2018-05-09T00:31:01.814Z,13.3
2018-05-09T00:32:00.907Z,13.3
2018-05-09T00:33:00.134Z,13.2
2018-05-09T00:35:58.132Z,13.2
2018-05-09T00:40:54.396Z,13.2
2018-05-09T00:41:53.600Z,13.2
2018-05-09T00:42:52.922Z,13.2
2018-05-09T00:47:49.008Z,13.2
2018-05-09T00:48:19.253Z,13.2
2018-05-09T00:48:49.781Z,13.2
2018-05-09T00:49:20.508Z,13.2
2018-05-09T00:52:45.286Z,13.2
2018-05-09T00:54:43.884Z,13.1
2018-05-09T00:55:43.306Z,13.1
2018-05-09T00:56:42.132Z,13.1
2018-05-09T00:59:39.722Z,13.1
2018-05-09T01:00:39.547Z,13.1
2018-05-09T01:03:37.288Z,13.1
2018-05-09T01:05:35.491Z,13
2018-05-09T01:06:34.969Z,13
2018-05-09T01:08:32.957Z,13
2018-05-09T01:09:32.774Z,13
2018-05-09T01:10:31.691Z,13
2018-05-09T01:11:30.908Z,13
2018-05-09T01:12:30.124Z,13
2018-05-09T01:13:29.332Z,13
2018-05-09T01:14:28.446Z,13
2018-05-09T01:15:28.161Z,13
2018-05-09T01:16:27.377Z,13
2018-05-09T01:18:26.199Z,13
2018-05-09T01:18:56.734Z,13
2018-05-09T01:21:23.627Z,13.1
2018-05-09T01:22:22.945Z,13.1
2018-05-09T01:25:20.599Z,13.1
2018-05-09T01:27:18.710Z,13.1
2018-05-09T01:28:18.143Z,13.1
2018-05-09T01:29:17.364Z,13.1
2018-05-09T01:29:47.892Z,13.1
2018-05-09T01:30:18.411Z,13.1
2018-05-09T01:30:48.663Z,13.1
2018-05-09T01:32:15.047Z,13.1
2018-05-09T01:35:13.040Z,13
2018-05-09T01:36:12.148Z,13
2018-05-09T01:37:11.370Z,13
2018-05-09T01:38:10.692Z,13
2018-05-09T01:39:09.902Z,13
2018-05-09T01:40:09.226Z,13
2018-05-09T01:40:39.467Z,13
2018-05-09T01:42:07.510Z,12.9
2018-05-09T01:44:06.210Z,12.9
2018-05-09T01:45:05.421Z,12.9
2018-05-09T01:47:04.013Z,12.8
2018-05-09T01:48:03.230Z,12.8
2018-05-09T01:49:02.055Z,12.8
2018-05-09T01:50:01.164Z,12.8
2018-05-09T01:51:00.668Z,12.8
2018-05-09T01:52:59.169Z,12.8
2018-05-09T01:54:57.965Z,12.8
2018-05-09T01:57:55.384Z,12.8
2018-05-09T01:58:54.707Z,12.8
2018-05-09T01:59:53.914Z,12.8
2018-05-09T02:01:52.511Z,12.7
2018-05-09T02:02:51.429Z,12.7
2018-05-09T02:03:50.644Z,12.7
2018-05-09T02:04:49.966Z,12.7
2018-05-09T02:08:46.727Z,12.7
2018-05-09T02:09:46.161Z,12.6
2018-05-09T02:10:45.380Z,12.6
2018-05-09T02:11:44.810Z,12.6
2018-05-09T02:12:44.020Z,12.6
2018-05-09T02:13:42.950Z,12.6
2018-05-09T02:15:41.551Z,12.6
2018-05-09T02:16:40.816Z,12.6
2018-05-09T02:18:39.426Z,12.5
2018-05-09T02:21:37.135Z,12.6
2018-05-09T02:22:36.064Z,12.5
2018-05-09T02:23:35.669Z,12.5
2018-05-09T02:25:33.874Z,12.6
2018-05-09T02:26:33.303Z,12.6
2018-05-09T02:28:31.506Z,12.6
2018-05-09T02:30:30.111Z,12.6
2018-05-09T02:31:29.432Z,12.6
2018-05-09T02:32:28.666Z,12.6
2018-05-09T02:34:26.979Z,12.5
2018-05-09T02:35:26.293Z,12.6
2018-05-09T02:36:25.619Z,12.6
2018-05-09T02:37:24.745Z,12.6
2018-05-09T02:38:24.170Z,12.5
2018-05-09T02:39:23.103Z,12.5
2018-05-09T02:40:22.427Z,12.5
2018-05-09T02:41:21.864Z,12.5
2018-05-09T02:42:20.687Z,12.5
2018-05-09T02:43:20.009Z,12.5
2018-05-09T02:45:18.718Z,12.5
2018-05-09T02:46:17.939Z,12.5
2018-05-09T02:47:17.060Z,12.5
2018-05-09T02:49:15.692Z,12.5
2018-05-09T02:50:14.795Z,12.5
2018-05-09T02:51:14.121Z,12.5
2018-05-09T02:53:12.742Z,12.5
2018-05-09T02:54:11.670Z,12.4
2018-05-09T02:56:10.276Z,12.4
2018-05-09T02:57:09.226Z,12.4
2018-05-09T02:58:08.544Z,12.4
2018-05-09T02:59:07.769Z,12.4
2018-05-09T03:00:07.112Z,12.4
2018-05-09T03:01:06.328Z,12.4
2018-05-09T03:02:05.547Z,12.3
2018-05-09T03:04:04.166Z,12.3
2018-05-09T03:07:01.775Z,12.3
2018-05-09T03:11:57.548Z,12.3
2018-05-09T03:13:56.260Z,12.3
2018-05-09T03:14:55.581Z,12.4
2018-05-09T03:17:53.074Z,12.4
2018-05-09T03:18:52.385Z,12.4
2018-05-09T03:22:49.250Z,12.4
2018-05-09T03:24:47.959Z,12.4
2018-05-09T03:25:46.882Z,12.4
2018-05-09T03:26:46.200Z,12.4
2018-05-09T03:27:45.406Z,12.3
2018-05-09T03:28:44.612Z,12.3
2018-05-09T03:29:44.234Z,12.3
2018-05-09T03:30:43.477Z,12.3
2018-05-09T03:31:42.303Z,12.3
2018-05-09T03:32:41.644Z,12.3
2018-05-09T03:33:40.848Z,12.3
2018-05-09T03:34:40.167Z,12.3
2018-05-09T03:36:38.762Z,12.2
2018-05-09T03:37:37.972Z,12.2
2018-05-09T03:38:36.794Z,12.2
2018-05-09T03:39:36.405Z,12.2
2018-05-09T03:41:34.301Z,12.2
2018-05-09T03:43:33.007Z,12.2
2018-05-09T03:44:32.333Z,12.2
2018-05-09T03:47:29.929Z,12.2
2018-05-09T03:49:28.424Z,12.2
2018-05-09T03:50:27.646Z,12.2
2018-05-09T03:52:26.451Z,12.1
2018-05-09T03:53:25.713Z,12.1
2018-05-09T03:54:24.519Z,12.1
2018-05-09T03:55:23.761Z,12.1
2018-05-09T03:56:22.970Z,12.1
2018-05-09T03:57:22.182Z,12.1
2018-05-09T03:58:21.603Z,12.1
2018-05-09T04:00:20.196Z,12.1
2018-05-09T04:01:19.004Z,12.1
2018-05-09T04:02:18.328Z,12
2018-05-09T04:03:17.662Z,12.1
2018-05-09T04:05:15.998Z,12.1
2018-05-09T04:06:15.106Z,12
2018-05-09T04:07:14.715Z,12
2018-05-09T04:08:13.647Z,12
2018-05-09T04:09:12.965Z,12
2018-05-09T04:10:12.426Z,12
2018-05-09T04:12:10.912Z,12
2018-05-09T04:15:08.499Z,12
2018-05-09T04:17:06.595Z,12
2018-05-09T04:18:06.358Z,12
2018-05-09T04:19:05.609Z,12
2018-05-09T04:21:03.920Z,12
2018-05-09T04:22:02.753Z,12
2018-05-09T04:23:01.957Z,12
2018-05-09T04:24:01.577Z,12
2018-05-09T04:25:59.860Z,12
2018-05-09T04:26:58.965Z,12
2018-05-09T04:27:58.409Z,12
2018-05-09T04:28:57.333Z,12
2018-05-09T04:31:54.930Z,12
2018-05-09T04:33:53.633Z,12.1
2018-05-09T04:34:52.953Z,12.1
2018-05-09T04:35:52.272Z,12.1
2018-05-09T04:39:48.926Z,12.2
2018-05-09T04:40:48.241Z,12.2
2018-05-09T04:41:47.669Z,12.2
2018-05-09T04:52:38.846Z,12.3
2018-05-09T04:58:34.380Z,12.4
2018-05-09T04:59:04.798Z,12.4
2018-05-09T05:01:32.082Z,12.5
2018-05-09T05:07:27.522Z,12.6
2018-05-09T05:10:25.109Z,12.7
2018-05-09T05:17:19.384Z,12.8
2018-05-09T05:24:14.151Z,13
2018-05-09T05:25:13.366Z,13
2018-05-09T05:29:10.342Z,13.1
2018-05-09T05:31:08.539Z,13.2
2018-05-09T05:32:07.753Z,13.2
2018-05-09T05:34:06.513Z,13.3
2018-05-09T05:36:04.722Z,13.4
2018-05-09T05:37:04.146Z,13.4
2018-05-09T05:39:02.747Z,13.5
2018-05-09T05:39:33.159Z,13.5
2018-05-09T05:41:00.951Z,13.5
2018-05-09T05:42:00.472Z,13.5
2018-05-09T05:42:59.472Z,13.6
2018-05-09T05:44:58.620Z,13.6
2018-05-09T05:45:57.122Z,13.7
2018-05-09T05:46:56.449Z,13.7
2018-05-09T05:47:55.877Z,13.7
2018-05-09T05:48:55.194Z,13.8
2018-05-09T05:49:25.601Z,13.8
2018-05-09T05:50:53.510Z,13.8
2018-05-09T05:52:52.111Z,13.9
2018-05-09T05:53:51.320Z,13.9
2018-05-09T05:54:50.131Z,14
2018-05-09T05:55:49.442Z,14
2018-05-09T05:56:48.882Z,14
2018-05-09T05:57:48.309Z,14
2018-05-09T05:59:46.485Z,14.1
2018-05-09T06:00:45.982Z,14.1
2018-05-09T06:02:44.227Z,14.2
2018-05-09T06:05:42.209Z,14.2
2018-05-09T06:06:40.922Z,14.3
2018-05-09T06:08:39.643Z,14.4
2018-05-09T06:09:38.964Z,14.4
2018-05-09T06:12:36.668Z,14.5
2018-05-09T06:13:35.989Z,14.5
2018-05-09T06:14:35.314Z,14.6
2018-05-09T06:15:34.744Z,14.6
2018-05-09T06:16:33.849Z,14.7
2018-05-09T06:17:33.171Z,14.7
2018-05-09T06:18:32.103Z,14.7
2018-05-09T06:19:31.423Z,14.7
2018-05-09T06:20:30.630Z,14.8
2018-05-09T06:21:29.875Z,14.8
2018-05-09T06:22:29.298Z,14.8
2018-05-09T06:23:28.409Z,14.9
2018-05-09T06:24:27.727Z,14.9
2018-05-09T06:25:27.157Z,14.9
2018-05-09T06:26:26.611Z,15
2018-05-09T06:27:25.443Z,15
2018-05-09T06:28:24.766Z,15
2018-05-09T06:31:22.369Z,15.1
2018-05-09T06:33:21.095Z,15.2
2018-05-09T06:35:19.914Z,15.3
2018-05-09T06:36:18.841Z,15.3
2018-05-09T06:37:18.264Z,15.3
2018-05-09T06:38:17.610Z,15.3
2018-05-09T06:39:16.525Z,15.4
2018-05-09T06:40:15.836Z,15.4
2018-05-09T06:41:15.055Z,15.5
2018-05-09T06:42:14.172Z,15.5
2018-05-09T06:43:13.883Z,15.5
2018-05-09T06:44:13.092Z,15.6
2018-05-09T06:45:12.298Z,15.7
2018-05-09T06:46:11.617Z,15.7
2018-05-09T06:47:10.958Z,15.7
2018-05-09T06:49:09.168Z,15.8
2018-05-09T06:50:08.268Z,15.8
2018-05-09T06:51:08.086Z,15.8
2018-05-09T06:55:05.075Z,16
2018-05-09T06:57:03.482Z,16.2
2018-05-09T06:58:02.689Z,16.2
2018-05-09T06:59:01.888Z,16.2
2018-05-09T07:02:59.212Z,16.4
2018-05-09T07:04:57.827Z,16.5
2018-05-09T07:05:57.254Z,16.5
2018-05-09T07:06:56.073Z,16.6
2018-05-09T07:08:54.887Z,16.7
2018-05-09T07:09:54.290Z,16.7
2018-05-09T07:10:53.383Z,16.7
2018-05-09T07:11:52.809Z,16.8
2018-05-09T07:12:51.911Z,16.9
2018-05-09T07:14:50.619Z,17
2018-05-09T07:16:49.326Z,17.1
2018-05-09T07:17:48.252Z,17.1
2018-05-09T07:18:47.580Z,17.2
2018-05-09T07:19:47.023Z,17.2
2018-05-09T07:20:46.342Z,17.2
2018-05-09T07:21:45.555Z,17.2
2018-05-09T07:23:44.268Z,17.3
2018-05-09T07:26:41.775Z,17.4
2018-05-09T07:27:12.407Z,17.4
2018-05-09T07:28:40.413Z,17.5
2018-05-09T07:29:10.939Z,17.5
2018-05-09T07:30:39.056Z,17.5
2018-05-09T07:31:38.269Z,17.5
2018-05-09T07:34:36.430Z,17.7
2018-05-09T07:35:36.073Z,17.7
2018-05-09T07:37:34.298Z,17.7
2018-05-09T07:38:04.829Z,17.7
2018-05-09T07:39:33.009Z,17.7
2018-05-09T07:40:32.331Z,17.7
2018-05-09T07:42:30.929Z,17.7
2018-05-09T07:43:30.256Z,17.7
2018-05-09T07:44:29.694Z,17.8
2018-05-09T07:45:29.022Z,17.8
2018-05-09T07:46:28.131Z,17.9
2018-05-09T07:49:26.130Z,18.2
2018-05-09T07:50:25.244Z,18.3
2018-05-09T07:51:24.570Z,18.3
2018-05-09T07:52:23.997Z,18.4
2018-05-09T07:53:23.213Z,18.5
2018-05-09T07:55:22.001Z,18.6
2018-05-09T07:56:21.216Z,18.6
2018-05-09T07:58:19.807Z,18.7
2018-05-09T07:59:19.129Z,18.8
2018-05-09T08:00:18.341Z,18.8
2018-05-09T08:02:17.356Z,18.8
2018-05-09T08:03:16.161Z,18.8
2018-05-09T08:05:15.164Z,19
2018-05-09T08:06:14.605Z,19
2018-05-09T08:07:13.674Z,19.1
2018-05-09T08:08:13.285Z,19.1
2018-05-09T08:09:12.559Z,19.1
2018-05-09T08:12:10.401Z,19.2
2018-05-09T08:13:09.713Z,19.2
2018-05-09T08:14:09.016Z,19.2
2018-05-09T08:15:08.119Z,19.2
2018-05-09T08:16:07.545Z,19.3
2018-05-09T08:17:06.760Z,19.3
2018-05-09T08:18:06.075Z,19.3
2018-05-09T08:20:04.789Z,19.4
2018-05-09T08:22:03.389Z,19.5
2018-05-09T08:24:02.605Z,19.6
2018-05-09T08:28:58.974Z,19.7
2018-05-09T08:30:58.070Z,19.7
2018-05-09T08:34:55.046Z,19.6
2018-05-09T08:35:54.475Z,19.6
2018-05-09T08:36:53.809Z,19.6
2018-05-09T08:39:51.905Z,19.7
2018-05-09T08:42:50.012Z,19.7
2018-05-09T08:44:48.821Z,19.9
2018-05-09T08:45:47.931Z,20
2018-05-09T08:47:46.639Z,20.3
2018-05-09T08:50:44.625Z,20.3
2018-05-09T08:55:41.505Z,20.3
2018-05-09T08:58:39.998Z,20.4
2018-05-09T08:59:39.228Z,20.4
2018-05-09T09:02:37.334Z,20.3
2018-05-09T09:07:34.322Z,20.4
2018-05-09T09:10:32.201Z,20.4
2018-05-09T09:17:28.110Z,21.1
2018-05-09T09:19:26.957Z,21.3
2018-05-09T09:21:25.450Z,21.4
2018-05-09T09:23:24.172Z,21.4
2018-05-09T09:25:23.062Z,21.5
2018-05-09T09:28:21.163Z,21.6
2018-05-09T09:36:16.194Z,21.6
2018-05-09T09:43:12.279Z,21.5
2018-05-09T09:47:09.769Z,21.5
2018-05-09T09:55:05.302Z,21.6
2018-05-09T09:56:04.509Z,21.7
2018-05-09T10:02:01.069Z,22
2018-05-09T10:03:59.791Z,22.1
2018-05-09T10:09:56.505Z,22.3
2018-05-09T10:27:46.436Z,23.4
2018-05-09T10:28:17.069Z,23.4
2018-05-09T10:28:47.199Z,23.4
2018-05-09T10:29:17.733Z,23.4
2018-05-09T10:36:41.346Z,23.6
2018-05-09T10:42:37.890Z,23.7
2018-05-09T10:46:36.163Z,23.6
2018-05-09T10:48:34.870Z,23.6
2018-05-09T10:58:29.682Z,23.7
2018-05-09T11:16:20.593Z,24.3
2018-05-09T11:23:17.021Z,24.5
2018-05-09T11:32:12.744Z,24.8
2018-05-09T11:50:04.291Z,26.1
2018-05-09T12:06:56.817Z,26.8
2018-05-09T12:22:49.803Z,27.5
2018-05-09T12:24:49.535Z,27.8
2018-05-09T12:26:48.248Z,27.8
2018-05-09T12:59:36.673Z,28.3
2018-05-09T13:00:35.994Z,28.6
2018-05-09T13:01:35.606Z,28.8
2018-05-09T13:03:34.829Z,28.8
2018-05-09T13:04:34.538Z,28.4
2018-05-09T13:06:33.742Z,28.6
2018-05-09T13:08:33.442Z,28.8
2018-05-09T13:09:32.985Z,28.9
2018-05-09T13:11:32.202Z,28.6
2018-05-09T13:13:31.910Z,28.9
2018-05-09T13:14:31.258Z,29
2018-05-09T13:15:31.096Z,29
2018-05-09T13:19:29.584Z,29
2018-05-09T13:25:27.853Z,29.4
2018-05-09T13:26:27.771Z,29.4
2018-05-09T13:28:26.787Z,29.4
2018-05-09T13:29:26.611Z,29.5
2018-05-09T13:31:25.619Z,29.6
2018-05-09T13:38:23.681Z,29.7
2018-05-09T13:39:23.296Z,29.7
2018-05-09T13:39:54.217Z,29.7
2018-05-09T14:31:10.320Z,30
2018-05-09T14:32:10.111Z,30.1
2018-05-09T14:34:09.628Z,30.1
2018-05-09T14:35:08.949Z,29.7
2018-05-09T14:36:09.277Z,29.9
2018-05-09T14:37:08.916Z,30.1
2018-05-09T14:50:06.030Z,30
2018-05-09T15:08:01.997Z,29.2
2018-05-09T15:13:00.677Z,29.3
2018-05-09T15:14:00.438Z,29.2
2018-05-09T15:17:59.153Z,29
2018-05-09T15:20:58.642Z,28.4
2018-05-09T15:21:58.726Z,28.3
2018-05-09T15:22:58.546Z,28.3
2018-05-09T15:23:57.762Z,28.2
2018-05-09T15:25:57.368Z,28.4
2018-05-09T15:26:57.082Z,28.3
2018-05-09T15:27:27.707Z,28.3
2018-05-09T15:27:58.349Z,28.3
2018-05-09T15:28:56.459Z,28.2
2018-05-09T15:34:55.021Z,27.5
2018-05-09T15:35:54.839Z,27.3
2018-05-09T15:36:54.338Z,27.1
2018-05-09T15:37:54.272Z,27
2018-05-09T15:38:54.233Z,26.7
2018-05-09T15:39:53.811Z,26.6
2018-05-09T15:40:53.630Z,26.6
2018-05-09T15:42:52.834Z,26.4
2018-05-09T15:44:52.984Z,26
2018-05-09T15:45:23.045Z,26
2018-05-09T15:46:51.950Z,25.9
2018-05-09T15:48:51.155Z,25.8
2018-05-09T15:50:50.295Z,25.7
2018-05-09T15:51:50.019Z,25.6
2018-05-09T15:52:49.749Z,25.5
2018-05-09T15:53:49.562Z,25.5
2018-05-09T15:55:48.785Z,25.3
2018-05-09T15:57:48.103Z,25
2018-05-09T15:58:48.028Z,24.9
2018-05-09T15:59:47.343Z,24.9
2018-05-09T16:00:47.423Z,24.8
2018-05-09T16:01:47.145Z,24.7
2018-05-09T16:03:46.147Z,24.6
2018-05-09T16:05:45.470Z,24.4
2018-05-09T16:06:45.192Z,24.2
2018-05-09T16:10:43.742Z,24.1
2018-05-09T16:13:42.232Z,23.9
2018-05-09T16:15:41.449Z,23.8
2018-05-09T16:16:41.171Z,23.7
2018-05-09T16:17:40.898Z,23.7
2018-05-09T16:18:40.367Z,23.7
2018-05-09T16:19:39.966Z,23.6
2018-05-09T16:20:39.575Z,23.6
2018-05-09T16:21:39.505Z,23.5
2018-05-09T16:22:38.804Z,23.5
2018-05-09T16:23:38.540Z,23.4
2018-05-09T16:24:37.926Z,23.4
2018-05-09T16:25:37.638Z,23.3
2018-05-09T16:26:37.356Z,23.4
2018-05-09T16:27:36.711Z,23.4
2018-05-09T16:28:36.529Z,23.4
2018-05-09T16:29:35.842Z,23.3
2018-05-09T16:30:06.478Z,23.3
2018-05-09T16:30:37.106Z,23.3
2018-05-09T16:31:07.744Z,23.3
2018-05-09T16:32:34.743Z,23.4
2018-05-09T16:33:34.459Z,23.4
2018-05-09T16:38:32.339Z,23.4
2018-05-09T16:39:31.555Z,23.5
2018-05-09T16:40:31.274Z,23.5
2018-05-09T16:44:29.253Z,23.6
2018-05-09T16:45:29.077Z,23.6
2018-05-09T16:46:28.798Z,23.7
2018-05-09T16:47:28.224Z,23.7
2018-05-09T16:49:27.324Z,23.8
2018-05-09T16:51:26.420Z,23.7
2018-05-09T16:54:24.816Z,23.7
2018-05-09T16:55:24.680Z,23.7
2018-05-09T16:56:24.005Z,23.8
2018-05-09T16:57:23.838Z,23.7
2018-05-09T16:58:23.192Z,23.8
2018-05-09T16:59:22.473Z,23.8
2018-05-09T17:00:22.291Z,23.7
2018-05-09T17:01:21.511Z,23.6
2018-05-09T17:03:20.721Z,23.6
2018-05-09T17:03:51.262Z,23.6
2018-05-09T17:04:21.494Z,23.5
2018-05-09T17:05:19.816Z,23.6
2018-05-09T17:06:19.246Z,23.5
2018-05-09T17:07:19.245Z,23.5
2018-05-09T17:08:18.303Z,23.4
2018-05-09T17:09:18.020Z,23.4
2018-05-09T17:10:17.410Z,23.4
2018-05-09T17:11:17.360Z,23.4
2018-05-09T17:12:16.690Z,23.4
2018-05-09T17:14:15.521Z,23.4
2018-05-09T17:16:14.808Z,23.3
2018-05-09T17:17:14.022Z,23.3
2018-05-09T17:18:13.855Z,23.2
2018-05-09T17:19:13.416Z,23.2
2018-05-09T17:20:13.069Z,23.2
2018-05-09T17:21:12.502Z,23.2
2018-05-09T17:22:11.715Z,23.1
2018-05-09T17:23:11.328Z,23.1
2018-05-09T17:24:10.538Z,23.1
2018-05-09T17:25:10.361Z,23
2018-05-09T17:26:09.775Z,22.9
2018-05-09T17:27:09.591Z,22.9
2018-05-09T17:28:08.799Z,22.9
2018-05-09T17:30:08.001Z,22.8
2018-05-09T17:31:07.721Z,22.8
2018-05-09T17:32:07.331Z,22.8
2018-05-09T17:36:05.316Z,22.7
2018-05-09T17:37:04.528Z,22.6
2018-05-09T17:38:04.137Z,22.7
2018-05-09T17:39:03.352Z,22.7
2018-05-09T17:40:03.088Z,22.7
2018-05-09T17:40:33.625Z,22.7
2018-05-09T17:41:04.259Z,22.6
2018-05-09T17:42:01.981Z,22.6
2018-05-09T17:43:01.708Z,22.5
2018-05-09T17:44:01.325Z,22.5
2018-05-09T17:45:00.429Z,22.5
2018-05-09T17:46:00.160Z,22.4
2018-05-09T17:46:59.766Z,22.4
2018-05-09T17:48:58.599Z,22.4
2018-05-09T17:49:57.923Z,22.4
2018-05-09T17:50:57.742Z,22.4
2018-05-09T17:51:57.450Z,22.3
2018-05-09T17:52:56.770Z,22.3
2018-05-09T17:53:56.384Z,22.3
2018-05-09T17:54:55.704Z,22.2
2018-05-09T17:55:55.027Z,22.2
2018-05-09T17:56:54.840Z,22.2
2018-05-09T17:57:54.166Z,22.2
2018-05-09T17:58:53.529Z,22.2
2018-05-09T17:59:53.246Z,22.1
2018-05-09T18:00:52.540Z,22.1
2018-05-09T18:01:22.957Z,22.1
2018-05-09T18:02:51.481Z,22
2018-05-09T18:03:51.355Z,22
2018-05-09T18:04:50.765Z,22
2018-05-09T18:05:49.749Z,22
2018-05-09T18:06:49.464Z,21.9
2018-05-09T18:07:48.667Z,21.9
2018-05-09T18:08:48.491Z,21.8
2018-05-09T18:10:47.302Z,21.8
2018-05-09T18:11:17.949Z,21.8
2018-05-09T18:11:48.133Z,21.8
2018-05-09T18:12:18.653Z,21.8
2018-05-09T18:13:46.055Z,21.7
2018-05-09T18:14:45.442Z,21.7
2018-05-09T18:15:44.666Z,21.6
2018-05-09T18:16:44.504Z,21.6
2018-05-09T18:17:43.721Z,21.5
2018-05-09T18:18:43.552Z,21.5
2018-05-09T18:19:42.981Z,21.5
2018-05-09T18:20:42.308Z,21.5
2018-05-09T18:21:41.524Z,21.4
2018-05-09T18:22:41.234Z,21.4
2018-05-09T18:23:40.643Z,21.4
2018-05-09T18:24:39.863Z,21.3
2018-05-09T18:25:39.681Z,21.3
2018-05-09T18:26:39.362Z,21.2
2018-05-09T18:27:38.173Z,21.2
2018-05-09T18:28:37.991Z,21.2
2018-05-09T18:29:36.993Z,21.1
2018-05-09T18:30:36.707Z,21.1
2018-05-09T18:31:36.317Z,21.1
2018-05-09T18:32:35.918Z,21
2018-05-09T18:33:35.424Z,21
2018-05-09T18:34:34.543Z,21
2018-05-09T18:35:33.973Z,20.9
2018-05-09T18:36:33.818Z,20.9
2018-05-09T18:37:33.260Z,20.9
2018-05-09T18:38:32.474Z,20.8
2018-05-09T18:39:31.933Z,20.8
2018-05-09T18:40:31.392Z,20.8
2018-05-09T18:41:30.712Z,20.8
2018-05-09T18:42:30.532Z,20.7
2018-05-09T18:43:29.754Z,20.7
2018-05-09T18:44:00.290Z,20.7
2018-05-09T18:45:28.789Z,20.6
2018-05-09T18:46:28.245Z,20.6
2018-05-09T18:47:27.647Z,20.6
2018-05-09T18:48:26.975Z,20.5
2018-05-09T18:49:26.197Z,20.5
2018-05-09T18:50:25.928Z,20.5
2018-05-09T18:51:25.132Z,20.4
2018-05-09T18:52:24.846Z,20.4
2018-05-09T18:53:24.172Z,20.3
2018-05-09T18:53:54.688Z,20.3
2018-05-09T18:54:24.923Z,20.3
2018-05-09T18:54:55.571Z,20.3
2018-05-09T18:55:26.106Z,20.3
2018-05-09T18:55:56.778Z,20.3
2018-05-09T18:56:27.414Z,20.2
2018-05-09T18:56:57.541Z,20.2
2018-05-09T18:58:21.409Z,20.2
2018-05-09T18:59:20.725Z,20.1
2018-05-09T19:00:20.435Z,20.1
2018-05-09T19:01:19.645Z,20.1
2018-05-09T19:02:18.972Z,20.1
2018-05-09T19:03:18.301Z,20
2018-05-09T19:04:18.131Z,20
2018-05-09T19:05:17.020Z,20
2018-05-09T19:05:47.542Z,20
2018-05-09T19:06:18.078Z,19.9
2018-05-09T19:06:48.697Z,19.9
2018-05-09T19:07:18.939Z,19.9
2018-05-09T19:07:49.186Z,19.9
2018-05-09T19:09:15.189Z,19.8
2018-05-09T19:10:14.524Z,19.8
2018-05-09T19:11:13.634Z,19.8
2018-05-09T19:12:13.134Z,19.7
2018-05-09T19:14:12.243Z,19.7
2018-05-09T19:15:11.565Z,19.6
2018-05-09T19:16:10.666Z,19.6
2018-05-09T19:17:10.356Z,19.6
2018-05-09T19:18:09.561Z,19.5
2018-05-09T19:19:09.278Z,19.5
2018-05-09T19:21:08.114Z,19.5
2018-05-09T19:22:07.210Z,19.4
2018-05-09T19:23:07.228Z,19.4
2018-05-09T19:24:06.425Z,19.4
2018-05-09T19:25:05.756Z,19.4
2018-05-09T19:27:04.478Z,19.3
2018-05-09T19:29:03.585Z,19.3
2018-05-09T19:30:02.472Z,19.3
2018-05-09T19:31:02.198Z,19.3
2018-05-09T19:32:01.415Z,19.2
2018-05-09T19:33:00.847Z,19.2
2018-05-09T19:34:59.557Z,19.2
2018-05-09T19:35:59.370Z,19.1
2018-05-09T19:36:58.703Z,19.1
2018-05-09T19:37:58.017Z,19.1
2018-05-09T19:38:57.228Z,19.1
2018-05-09T19:40:56.385Z,19.1
2018-05-09T19:41:55.484Z,19
2018-05-09T19:42:55.194Z,19
2018-05-09T19:43:54.625Z,19
2018-05-09T19:46:52.823Z,18.9
2018-05-09T19:47:52.270Z,18.9
2018-05-09T19:48:51.119Z,18.9
2018-05-09T19:49:50.436Z,18.9
2018-05-09T19:50:50.390Z,18.8
2018-05-09T19:51:49.603Z,18.8
2018-05-09T19:52:48.923Z,18.8
2018-05-09T19:53:48.248Z,18.7
2018-05-09T19:54:47.635Z,18.7
2018-05-09T19:55:47.106Z,18.7
2018-05-09T19:56:46.431Z,18.6
2018-05-09T19:57:45.652Z,18.6
2018-05-09T19:59:44.464Z,18.6
2018-05-09T20:00:44.295Z,18.5
2018-05-09T20:01:43.630Z,18.5
2018-05-09T20:02:43.066Z,18.5
2018-05-09T20:03:42.393Z,18.4
2018-05-09T20:04:41.824Z,18.4
2018-05-09T20:05:40.827Z,18.4
2018-05-09T20:06:40.538Z,18.4
2018-05-09T20:07:39.992Z,18.3
2018-05-09T20:09:38.591Z,18.3
2018-05-09T20:10:37.911Z,18.3
2018-05-09T20:11:37.270Z,18.3
2018-05-09T20:12:36.478Z,18.2
2018-05-09T20:13:35.799Z,18.2
2018-05-09T20:14:35.632Z,18.2
2018-05-09T20:15:34.962Z,18.1
2018-05-09T20:16:34.182Z,18.1
2018-05-09T20:17:33.599Z,18.1
2018-05-09T20:18:32.800Z,18.1
2018-05-09T20:19:32.294Z,18.1
2018-05-09T20:20:31.507Z,18.1
2018-05-09T20:21:31.233Z,18
2018-05-09T20:22:30.440Z,18
2018-05-09T20:23:29.645Z,18
2018-05-09T20:24:29.156Z,18
2018-05-09T20:25:28.475Z,18
2018-05-09T20:26:27.697Z,17.9
2018-05-09T20:27:27.527Z,17.9
2018-05-09T20:28:26.956Z,17.9
2018-05-09T20:29:26.170Z,17.9
2018-05-09T20:30:25.508Z,17.9
2018-05-09T20:31:24.943Z,17.8
2018-05-09T20:32:24.202Z,17.8
2018-05-09T20:33:23.422Z,17.8
2018-05-09T20:34:22.919Z,17.8
2018-05-09T20:36:21.541Z,17.8
2018-05-09T20:37:20.864Z,17.8
2018-05-09T20:38:20.294Z,17.8
2018-05-09T20:39:19.796Z,17.8
2018-05-09T20:40:19.223Z,17.8
2018-05-09T20:41:18.773Z,17.7
2018-05-09T20:42:17.992Z,17.7
2018-05-09T20:43:17.198Z,17.7
2018-05-09T20:45:15.910Z,17.7
2018-05-09T20:45:46.380Z,17.7
2018-05-09T20:47:14.888Z,17.6
2018-05-09T20:48:14.245Z,17.6
2018-05-09T20:49:13.569Z,17.6
2018-05-09T20:50:12.994Z,17.6
2018-05-09T20:51:11.919Z,17.6
2018-05-09T20:53:11.237Z,17.5
2018-05-09T20:54:10.247Z,17.5
2018-05-09T20:55:09.681Z,17.5
2018-05-09T20:56:08.998Z,17.5
2018-05-09T20:57:08.206Z,17.5
2018-05-09T20:58:07.808Z,17.5
2018-05-09T20:59:07.021Z,17.5
2018-05-09T21:00:06.230Z,17.4
2018-05-09T21:01:05.841Z,17.4
2018-05-09T21:02:05.052Z,17.4
2018-05-09T21:03:04.371Z,17.4
2018-05-09T21:04:03.694Z,17.4
2018-05-09T21:05:03.195Z,17.4
2018-05-09T21:06:02.294Z,17.3
2018-05-09T21:07:01.513Z,17.3
2018-05-09T21:08:01.224Z,17.3
2018-05-09T21:09:00.346Z,17.3
2018-05-09T21:09:59.591Z,17.3
2018-05-09T21:10:59.092Z,17.2
2018-05-09T21:11:58.409Z,17.2
2018-05-09T21:12:57.724Z,17.2
2018-05-09T21:13:56.939Z,17.2
2018-05-09T21:14:56.765Z,17.2
2018-05-09T21:15:56.078Z,17.2
2018-05-09T21:16:55.406Z,17.2
2018-05-09T21:17:54.722Z,17.1
2018-05-09T21:18:54.145Z,17.1
2018-05-09T21:19:53.467Z,17.1
2018-05-09T21:20:52.784Z,17.1
2018-05-09T21:21:51.891Z,17.1
2018-05-09T21:22:51.212Z,17
2018-05-09T21:23:50.531Z,17
2018-05-09T21:24:50.116Z,17
2018-05-09T21:25:49.520Z,17
2018-05-09T21:26:48.846Z,17
2018-05-09T21:27:48.418Z,17
2018-05-09T21:28:47.336Z,17
2018-05-09T21:29:46.662Z,17
2018-05-09T21:30:46.086Z,16.9
2018-05-09T21:31:45.294Z,17
2018-05-09T21:32:45.010Z,16.9
2018-05-09T21:33:44.432Z,16.9
2018-05-09T21:34:43.241Z,16.9
2018-05-09T21:35:42.670Z,16.9
2018-05-09T21:36:42.105Z,16.9
2018-05-09T21:37:41.325Z,16.9
2018-05-09T21:38:40.823Z,16.9
2018-05-09T21:39:40.249Z,16.9
2018-05-09T21:40:39.673Z,16.9
2018-05-09T21:41:39.107Z,16.9
2018-05-09T21:42:38.326Z,16.9
2018-05-09T21:43:37.751Z,16.9
2018-05-09T21:44:36.860Z,16.9
2018-05-09T21:45:35.851Z,16.9
2018-05-09T21:46:35.680Z,16.9
2018-05-09T21:47:34.726Z,16.9
2018-05-09T21:48:34.552Z,16.9
2018-05-09T21:49:33.474Z,16.9
2018-05-09T21:50:32.689Z,16.9
2018-05-09T21:51:32.056Z,16.9
2018-05-09T21:52:31.875Z,16.9
2018-05-09T21:54:30.081Z,16.9
2018-05-09T21:55:29.906Z,16.9
2018-05-09T21:56:00.333Z,16.9
2018-05-09T21:56:30.738Z,16.9
2018-05-09T21:57:28.329Z,16.9
2018-05-09T21:58:27.536Z,16.8
2018-05-09T22:00:26.030Z,16.8
2018-05-09T22:01:25.749Z,16.8
2018-05-09T22:02:24.851Z,16.8
2018-05-09T22:03:24.134Z,16.7
2018-05-09T22:04:23.846Z,16.7
2018-05-09T22:05:23.161Z,16.7
2018-05-09T22:06:22.481Z,16.7
2018-05-09T22:07:21.803Z,16.7
2018-05-09T22:08:20.772Z,16.7
2018-05-09T22:09:20.485Z,16.7
2018-05-09T22:10:19.803Z,16.7
2018-05-09T22:11:19.014Z,16.7
2018-05-09T22:12:18.570Z,16.7
2018-05-09T22:13:17.504Z,16.7
2018-05-09T22:14:16.644Z,16.6
2018-05-09T22:15:16.582Z,16.6
2018-05-09T22:16:15.791Z,16.6
2018-05-09T22:17:15.117Z,16.6
2018-05-09T22:18:14.429Z,16.6
2018-05-09T22:19:13.751Z,16.6
2018-05-09T22:20:13.170Z,16.6
2018-05-09T22:21:12.381Z,16.5
2018-05-09T22:22:11.696Z,16.5
2018-05-09T22:23:10.907Z,16.5
2018-05-09T22:24:10.017Z,16.5
2018-05-09T22:25:09.863Z,16.5
2018-05-09T22:26:08.791Z,16.5
2018-05-09T22:27:08.112Z,16.4
2018-05-09T22:28:07.732Z,16.4
2018-05-09T22:29:07.236Z,16.4
2018-05-09T22:30:06.307Z,16.4
2018-05-09T22:31:05.629Z,16.4
2018-05-09T22:32:04.952Z,16.4
2018-05-09T22:33:04.273Z,16.4
2018-05-09T22:34:03.484Z,16.3
2018-05-09T22:35:02.810Z,16.3
2018-05-09T22:36:01.798Z,16.3
2018-05-09T22:37:01.624Z,16.3
2018-05-09T22:38:00.952Z,16.3